Time;durP1;ratioP1;P1;durP2;ratioP2;P2;SDS_P1;SDS_P2;PMS_P1;PMS_P2;Temp;Humidity;BMP_temperature;BMP_pressure;BME280_temperature;BME280_humidity;BME280_pressure;Samples;Min_cycle;Max_cycle;Signal;HPM_P1;HPM_P2
2023/01/27 00:00:06;;;;;;;14.88;1.80;;;7.90;99.90;;;;;;5077102;28;20029;-60
2023/01/27 00:02:41;;;;;;;12.65;1.95;;;7.80;99.90;;;;;;5076587;28;20024;-61
2023/01/27 00:05:09;;;;;;;14.25;2.10;;;7.80;99.90;;;;;;5059718;28;20067;-60
2023/01/27 00:07:35;;;;;;;12.45;1.90;;;7.80;99.90;;;;;;5076514;28;20056;-61
2023/01/27 00:10:01;;;;;;;8.68;1.50;;;7.80;99.90;;;;;;5076549;28;20079;-61
2023/01/27 00:15:13;;;;;;;16.05;1.95;;;7.80;99.90;;;;;;5061836;28;20028;-60
2023/01/27 00:17:39;;;;;;;12.95;2.05;;;7.80;99.90;;;;;;5076577;28;20048;-61
2023/01/27 00:20:06;;;;;;;17.33;1.95;;;7.70;99.90;;;;;;5076427;28;20096;-61
2023/01/27 00:25:16;;;;;;;10.02;1.90;;;7.90;99.90;;;;;;5076600;28;20112;-61
2023/01/27 00:27:43;;;;;;;12.25;2.33;;;7.80;99.90;;;;;;5059071;28;20120;-61
2023/01/27 00:30:09;;;;;;;8.27;1.60;;;7.70;99.90;;;;;;5076514;28;20098;-61
2023/01/27 00:35:20;;;;;;;14.88;1.60;;;7.70;99.90;;;;;;5076364;28;20042;-61
2023/01/27 00:37:46;;;;;;;17.20;2.65;;;7.60;99.90;;;;;;5076342;28;20028;-61
2023/01/27 00:40:14;;;;;;;13.60;2.35;;;7.80;99.90;;;;;;5076167;28;20132;-61
2023/01/27 00:42:40;;;;;;;13.80;1.90;;;7.70;99.90;;;;;;5058906;28;20032;-61
2023/01/27 00:47:51;;;;;;;10.18;1.58;;;7.60;99.90;;;;;;5061737;28;20332;-62
2023/01/27 00:50:18;;;;;;;14.10;1.95;;;7.50;99.90;;;;;;5058683;28;20048;-61
2023/01/27 00:52:45;;;;;;;10.05;2.20;;;7.50;99.90;;;;;;5062623;28;20036;-61
2023/01/27 00:55:11;;;;;;;14.00;1.98;;;7.50;99.90;;;;;;5045949;28;20143;-62
2023/01/27 00:57:37;;;;;;;10.55;1.98;;;7.50;99.90;;;;;;5062542;28;20308;-61
2023/01/27 01:00:05;;;;;;;15.00;2.17;;;7.50;99.90;;;;;;5062467;28;20028;-61
2023/01/27 01:02:31;;;;;;;13.18;1.95;;;7.50;99.90;;;;;;5079803;28;20023;-61
2023/01/27 01:04:57;;;;;;;15.32;3.42;;;7.50;99.90;;;;;;5079762;28;20032;-61
2023/01/27 01:07:23;;;;;;;13.07;2.13;;;7.50;99.90;;;;;;5079718;28;20049;-61
2023/01/27 01:09:49;;;;;;;7.85;1.77;;;7.50;99.90;;;;;;5079768;28;20041;-61
2023/01/27 01:12:15;;;;;;;12.73;1.90;;;7.50;99.90;;;;;;5062223;28;20323;-60
2023/01/27 01:14:41;;;;;;;19.38;2.08;;;7.50;99.90;;;;;;5045600;28;20041;-61
2023/01/27 01:17:07;;;;;;;14.65;2.30;;;7.50;99.90;;;;;;5045678;28;20075;-60
2023/01/27 01:19:33;;;;;;;9.65;2.03;;;7.60;99.90;;;;;;5079533;28;20028;-61
2023/01/27 01:21:59;;;;;;;10.52;1.67;;;7.50;99.90;;;;;;5062259;28;20032;-60
2023/01/27 01:24:24;;;;;;;8.43;1.88;;;7.50;99.90;;;;;;5045334;28;20033;-62
2023/01/27 01:26:50;;;;;;;9.80;1.80;;;7.50;99.90;;;;;;5079340;28;20261;-61
2023/01/27 01:29:17;;;;;;;13.05;2.47;;;7.60;99.90;;;;;;5079739;28;20067;-62
2023/01/27 01:31:43;;;;;;;11.48;2.22;;;7.60;99.90;;;;;;5061796;28;20028;-61
2023/01/27 01:34:09;;;;;;;10.23;1.77;;;7.60;99.90;;;;;;5062075;28;20039;-61
2023/01/27 01:36:34;;;;;;;12.30;2.33;;;7.50;99.90;;;;;;5061757;28;20037;-61
2023/01/27 01:39:03;;;;;;;10.80;2.15;;;7.50;99.90;;;;;;5061733;28;20035;-61
2023/01/27 01:41:29;;;;;;;10.65;2.28;;;7.50;99.90;;;;;;5045018;28;20037;-62
2023/01/27 01:43:55;;;;;;;11.18;2.13;;;7.40;99.90;;;;;;5079171;28;20028;-61
2023/01/27 01:46:21;;;;;;;18.42;2.92;;;7.40;99.90;;;;;;5061919;28;20086;-61
2023/01/27 01:48:54;;;;;;;11.73;2.75;;;7.40;99.90;;;;;;5044997;28;20316;-61
2023/01/27 01:51:29;;;;;;;10.98;2.63;;;7.30;99.90;;;;;;5061368;28;20052;-62
2023/01/27 01:54:02;;;;;;;9.20;2.60;;;7.30;99.90;;;;;;5061839;28;20052;-61
2023/01/27 01:56:34;;;;;;;;;;;7.30;99.90;;;;;;5079186;28;20106;-61
2023/01/27 01:59:06;;;;;;;8.10;2.20;;;7.30;99.90;;;;;;5061223;28;19909;-61
2023/01/27 02:01:32;;;;;;;11.05;2.50;;;7.30;99.90;;;;;;5078203;28;20029;-61
2023/01/27 02:04:02;;;;;;;10.45;2.47;;;7.30;99.90;;;;;;5078711;28;20024;-61
2023/01/27 02:06:44;;;;;;;9.43;3.30;;;7.30;99.90;;;;;;5078662;28;20296;-61
2023/01/27 02:09:10;;;;;;;9.70;2.90;;;7.30;99.90;;;;;;5061304;28;20025;-61
2023/01/27 02:11:36;;;;;;;6.40;2.22;;;7.30;99.90;;;;;;5061353;28;20036;-61
2023/01/27 02:14:02;;;;;;;5.05;2.53;;;7.30;99.90;;;;;;5044608;28;20031;-61
2023/01/27 02:16:29;;;;;;;6.80;3.10;;;7.30;99.90;;;;;;5078524;28;20032;-61
2023/01/27 02:18:57;;;;;;;12.35;2.80;;;7.20;99.90;;;;;;5044836;28;20056;-62
2023/01/27 02:21:23;;;;;;;6.68;2.83;;;7.20;99.90;;;;;;5061415;28;20082;-61
2023/01/27 02:24:05;;;;;;;7.00;2.83;;;7.20;99.90;;;;;;5078338;28;20033;-61
2023/01/27 02:26:37;;;;;;;8.25;2.50;;;7.10;99.90;;;;;;5078288;28;20042;-61
2023/01/27 02:29:07;;;;;;;7.32;2.63;;;7.20;99.90;;;;;;5060850;28;20021;-61
2023/01/27 02:31:33;;;;;;;4.97;2.30;;;7.20;99.90;;;;;;5060722;28;20025;-61
2023/01/27 02:34:06;;;;;;;9.52;2.35;;;7.10;99.90;;;;;;5078154;28;20068;-61
2023/01/27 02:36:36;;;;;;;6.93;2.85;;;7.20;99.90;;;;;;5060715;28;20029;-61
2023/01/27 02:39:04;;;;;;;8.55;2.65;;;7.20;99.90;;;;;;5078174;28;20029;-61
2023/01/27 02:41:42;;;;;;;7.55;2.35;;;7.20;99.90;;;;;;5077994;28;20036;-61
2023/01/27 02:44:09;;;;;;;7.03;2.50;;;7.30;99.90;;;;;;5060636;28;20020;-61
2023/01/27 02:46:36;;;;;;;5.25;1.88;;;7.30;99.90;;;;;;5060481;28;20025;-61
2023/01/27 02:49:02;;;;;;;9.20;2.25;;;7.20;99.90;;;;;;5060560;28;20063;-60
2023/01/27 02:51:28;;;;;;;6.38;1.90;;;7.30;99.90;;;;;;5043659;28;20342;-61
2023/01/27 02:53:54;;;;;;;8.30;1.88;;;7.30;99.90;;;;;;5077766;28;20028;-61
2023/01/27 02:56:21;;;;;;;11.20;1.83;;;7.30;99.90;;;;;;5043853;28;20033;-61
2023/01/27 02:58:47;;;;;;;4.65;1.58;;;7.20;99.90;;;;;;5060452;28;20032;-61
2023/01/27 03:01:16;;;;;;;9.68;1.77;;;7.20;99.90;;;;;;5043999;28;20086;-61
2023/01/27 03:03:48;;;;;;;6.72;1.52;;;7.20;99.90;;;;;;5077550;28;20024;-62
2023/01/27 03:06:18;;;;;;;5.72;1.42;;;7.20;99.90;;;;;;5045003;28;20020;-61
2023/01/27 03:08:44;;;;;;;9.57;1.70;;;7.30;99.90;;;;;;5060180;28;20028;-61
2023/01/27 03:11:12;;;;;;;10.80;2.00;;;7.20;99.90;;;;;;5060533;28;20307;-61
2023/01/27 03:13:39;;;;;;;11.18;2.10;;;7.30;99.90;;;;;;5059182;28;20051;-61
2023/01/27 03:18:52;;;;;;;9.50;2.15;;;7.30;99.90;;;;;;5077416;28;20311;-61
2023/01/27 03:21:19;;;;;;;11.85;1.60;;;7.20;99.90;;;;;;5059925;28;20172;-62
2023/01/27 03:23:47;;;;;;;9.65;1.63;;;7.30;99.90;;;;;;5077292;28;20089;-62
2023/01/27 03:26:16;;;;;;;6.70;1.88;;;7.20;99.90;;;;;;5043618;28;20033;-60
2023/01/27 03:29:53;;;;;;;7.53;2.30;;;7.20;99.90;;;;;;5043674;28;20398;-60
2023/01/27 03:31:34;;;;;;;10.70;1.83;;;7.20;99.90;;;;;;5077090;28;20273;-60
2023/01/27 03:34:01;;;;;;;9.05;2.45;;;7.10;99.90;;;;;;5059912;28;20300;-61
2023/01/27 03:47:34;;;;;;;5.45;1.88;;;7.10;99.90;;;;;;5059456;28;20036;-60
2023/01/27 03:50:00;;;;;;;7.43;2.20;;;6.90;99.90;;;;;;5042700;28;20056;-61
2023/01/27 03:52:26;;;;;;;8.45;2.30;;;7.00;99.90;;;;;;5042936;28;20051;-61
2023/01/27 03:54:52;;;;;;;7.68;2.45;;;7.00;99.90;;;;;;5059446;28;20090;-63
2023/01/27 03:57:17;;;;;;;11.98;2.90;;;6.90;99.90;;;;;;5059582;28;20066;-61
2023/01/27 03:59:43;;;;;;;6.63;2.80;;;6.90;99.90;;;;;;5059962;28;20101;-62
2023/01/27 04:07:38;;;;;;;5.35;2.95;;;6.70;99.90;;;;;;5062009;28;20392;-61
2023/01/27 04:10:05;;;;;;;4.15;3.00;;;6.70;99.90;;;;;;5059453;28;20037;-61
2023/01/27 04:12:31;;;;;;;7.50;3.30;;;6.70;99.90;;;;;;5076786;28;20053;-61
2023/01/27 04:14:57;;;;;;;11.15;3.60;;;6.70;99.90;;;;;;5059531;28;20036;-61
2023/01/27 04:17:22;;;;;;;6.20;3.80;;;6.60;99.90;;;;;;5042854;28;20033;-61
2023/01/27 04:19:48;;;;;;;10.63;4.20;;;6.50;99.90;;;;;;5076531;28;20082;-62
2023/01/27 04:22:15;;;;;;;7.35;4.25;;;6.40;99.90;;;;;;5059345;28;20108;-62
2023/01/27 04:24:41;;;;;;;7.10;3.55;;;6.50;99.90;;;;;;5077134;28;20337;-61
2023/01/27 04:27:12;;;;;;;6.03;3.80;;;6.50;99.90;;;;;;5080622;28;20051;-62
2023/01/27 04:29:40;;;;;;;6.70;4.18;;;6.50;99.90;;;;;;5063202;28;20025;-61
2023/01/27 04:32:11;;;;;;;7.47;4.05;;;6.40;99.90;;;;;;5063068;28;20024;-62
2023/01/27 04:34:38;;;;;;;8.45;4.25;;;6.40;99.90;;;;;;5080505;28;20088;-61
2023/01/27 04:37:05;;;;;;;8.10;4.82;;;6.40;99.90;;;;;;5080405;28;20020;-61
2023/01/27 04:39:32;;;;;;;9.02;4.85;;;6.30;99.90;;;;;;5063483;28;20035;-61
2023/01/27 04:41:58;;;;;;;10.02;4.32;;;6.20;99.90;;;;;;5080259;28;20025;-61
2023/01/27 04:44:24;;;;;;;8.48;4.38;;;6.40;99.90;;;;;;5080150;28;20036;-61
2023/01/27 04:46:50;;;;;;;9.52;4.50;;;6.40;99.90;;;;;;5080431;28;20111;-61
2023/01/27 04:49:17;;;;;;;7.55;4.47;;;6.30;99.90;;;;;;5063269;28;20025;-61
2023/01/27 04:51:43;;;;;;;8.80;4.53;;;6.20;99.90;;;;;;5079963;28;20052;-61
2023/01/27 04:54:09;;;;;;;8.27;4.75;;;6.20;99.90;;;;;;5062651;28;20028;-61
2023/01/27 04:56:37;;;;;;;7.32;4.43;;;6.20;99.90;;;;;;5046173;28;20111;-61
2023/01/27 04:59:06;;;;;;;8.93;5.00;;;6.10;99.90;;;;;;5062549;28;20111;-61
2023/01/27 05:01:32;;;;;;;10.57;5.00;;;6.00;99.90;;;;;;5079860;28;20296;-60
2023/01/27 05:03:58;;;;;;;8.65;4.45;;;6.10;99.90;;;;;;5080025;28;20028;-61
2023/01/27 05:06:24;;;;;;;8.60;4.65;;;6.10;99.90;;;;;;5079751;28;20103;-61
2023/01/27 05:08:51;;;;;;;11.05;4.80;;;6.10;99.90;;;;;;5079700;28;20048;-61
2023/01/27 05:11:17;;;;;;;8.30;4.78;;;6.30;99.90;;;;;;5080100;28;20107;-62
2023/01/27 05:13:44;;;;;;;10.32;4.85;;;6.30;99.90;;;;;;5062252;28;20033;-62
2023/01/27 05:16:19;;;;;;;10.35;4.72;;;6.30;99.90;;;;;;5045452;28;20352;-62
2023/01/27 05:18:46;;;;;;;7.57;4.45;;;6.10;99.90;;;;;;5062202;28;20031;-62
2023/01/27 05:21:18;;;;;;;10.30;4.70;;;5.90;99.90;;;;;;5045456;28;20085;-62
2023/01/27 05:23:44;;;;;;;9.45;4.43;;;5.90;99.90;;;;;;5079483;28;20029;-62
2023/01/27 05:26:13;;;;;;;10.27;5.00;;;5.90;99.90;;;;;;5062244;28;20056;-62
2023/01/27 05:28:42;;;;;;;8.50;4.88;;;6.00;99.90;;;;;;5079452;28;20313;-62
2023/01/27 05:31:11;;;;;;;11.40;5.13;;;5.70;99.90;;;;;;5062073;28;20107;-62
2023/01/27 05:33:37;;;;;;;13.02;5.35;;;5.60;99.90;;;;;;5061918;28;20032;-62
2023/01/27 05:36:05;;;;;;;10.77;4.68;;;5.60;99.90;;;;;;5061211;28;20039;-61
2023/01/27 05:38:31;;;;;;;8.00;4.90;;;5.60;99.90;;;;;;5061291;28;20036;-61
2023/01/27 05:41:00;;;;;;;8.82;4.72;;;5.60;99.90;;;;;;5061738;28;20273;-61
2023/01/27 05:43:31;;;;;;;7.35;4.93;;;5.60;99.90;;;;;;5079060;28;20060;-61
2023/01/27 05:46:15;;;;;;;14.43;5.43;;;5.60;99.90;;;;;;5061615;28;20040;-61
2023/01/27 05:48:43;;;;;;;9.40;5.60;;;5.70;99.90;;;;;;5079140;28;20048;-61
2023/01/27 05:51:10;;;;;;;10.88;5.32;;;5.70;99.90;;;;;;5078809;28;20135;-61
2023/01/27 05:53:36;;;;;;;9.75;5.68;;;5.90;99.90;;;;;;5061439;28;20033;-62
2023/01/27 05:56:03;;;;;;;11.32;5.88;;;5.80;99.90;;;;;;5061502;28;20043;-61
2023/01/27 05:58:30;;;;;;;11.88;6.70;;;5.80;99.90;;;;;;5044807;28;20047;-61
2023/01/27 06:01:04;;;;;;;10.32;6.63;;;5.80;99.90;;;;;;5061252;28;20051;-61
2023/01/27 06:03:30;;;;;;;11.05;6.20;;;5.90;99.90;;;;;;5061511;28;20423;-62
2023/01/27 06:05:57;;;;;;;12.05;6.68;;;5.70;99.90;;;;;;5061017;28;20029;-62
2023/01/27 06:08:24;;;;;;;13.80;7.05;;;5.70;99.90;;;;;;5078521;28;20296;-62
2023/01/27 06:10:51;;;;;;;13.52;7.32;;;5.80;99.90;;;;;;5060936;28;20036;-61
2023/01/27 06:13:21;;;;;;;12.43;6.30;;;5.70;99.90;;;;;;5044446;28;20119;-62
2023/01/27 06:15:47;;;;;;;12.20;6.53;;;5.50;99.90;;;;;;5060888;28;20044;-61
2023/01/27 06:18:14;;;;;;;11.35;6.65;;;5.40;99.90;;;;;;5078364;28;20025;-62
2023/01/27 06:20:41;;;;;;;13.82;6.75;;;5.50;99.90;;;;;;5078328;28;20467;-62
2023/01/27 06:23:08;;;;;;;13.70;7.35;;;5.50;99.90;;;;;;5060968;28;20082;-62
2023/01/27 06:25:45;;;;;;;13.38;7.18;;;5.60;99.90;;;;;;5078920;28;20037;-61
2023/01/27 06:28:12;;;;;;;11.40;6.88;;;5.70;99.90;;;;;;5044198;28;20021;-61
2023/01/27 06:30:39;;;;;;;12.05;6.82;;;5.80;99.90;;;;;;5060847;28;20106;-62
2023/01/27 06:33:06;;;;;;;13.45;7.90;;;5.70;99.90;;;;;;5078080;28;20029;-63
2023/01/27 06:35:33;;;;;;;11.80;7.10;;;5.90;99.90;;;;;;5044093;28;20059;-61
2023/01/27 06:38:00;;;;;;;13.23;7.40;;;5.80;99.90;;;;;;5078032;28;20123;-62
2023/01/27 06:40:28;;;;;;;12.18;8.05;;;5.80;99.90;;;;;;5077886;28;20036;-62
2023/01/27 06:42:54;;;;;;;14.07;7.82;;;5.60;99.90;;;;;;5077951;28;20056;-63
2023/01/27 06:45:20;;;;;;;14.48;8.15;;;5.70;99.90;;;;;;5077893;28;20052;-61
2023/01/27 06:47:52;;;;;;;13.23;8.30;;;5.70;99.90;;;;;;5077657;28;20044;-61
2023/01/27 06:50:18;;;;;;;15.68;8.20;;;5.60;99.90;;;;;;5061809;28;20129;-61
2023/01/27 06:52:44;;;;;;;12.68;7.88;;;5.60;99.90;;;;;;5077785;28;20068;-61
2023/01/27 06:55:09;;;;;;;13.18;7.13;;;5.40;99.90;;;;;;5078197;28;20354;-61
2023/01/27 06:57:35;;;;;;;13.10;7.78;;;5.30;99.90;;;;;;5060061;28;20087;-60
2023/01/27 07:00:01;;;;;;;12.32;8.13;;;5.40;99.90;;;;;;5060304;28;20064;-61
2023/01/27 07:02:27;;;;;;;13.85;8.52;;;5.50;99.90;;;;;;5060252;28;20025;-62
2023/01/27 07:04:53;;;;;;;13.05;8.55;;;5.50;99.90;;;;;;5060026;28;20025;-62
2023/01/27 07:07:19;;;;;;;14.10;8.63;;;5.70;99.90;;;;;;5077433;28;20035;-62
2023/01/27 07:09:45;;;;;;;16.42;8.88;;;5.70;99.90;;;;;;5043384;28;20063;-62
2023/01/27 07:12:10;;;;;;;17.05;9.30;;;5.80;99.90;;;;;;5077428;28;20113;-62
2023/01/27 07:14:36;;;;;;;20.35;9.93;;;5.70;99.90;;;;;;5043236;28;20407;-62
2023/01/27 07:17:02;;;;;;;15.27;10.00;;;5.70;99.90;;;;;;5059879;28;20028;-60
2023/01/27 07:19:28;;;;;;;15.80;9.68;;;5.70;99.90;;;;;;5043080;28;20028;-61
2023/01/27 07:21:54;;;;;;;14.18;10.05;;;5.70;99.90;;;;;;5077038;28;20121;-61
2023/01/27 07:24:19;;;;;;;15.35;9.75;;;5.60;99.90;;;;;;5077615;28;20351;-61
2023/01/27 07:26:46;;;;;;;12.73;8.82;;;5.60;99.90;;;;;;5059654;28;20035;-61
2023/01/27 07:29:13;;;;;;;14.80;9.50;;;5.50;99.90;;;;;;5077085;28;20033;-63
2023/01/27 07:31:39;;;;;;;15.73;9.93;;;5.50;99.90;;;;;;5042829;28;20064;-62
2023/01/27 07:34:04;;;;;;;14.02;9.07;;;5.60;99.90;;;;;;5076922;28;20067;-60
2023/01/27 07:36:30;;;;;;;14.30;9.10;;;5.50;99.90;;;;;;5076836;28;20431;-61
2023/01/27 07:38:56;;;;;;;16.83;9.35;;;5.70;99.90;;;;;;5077037;28;20067;-61
2023/01/27 07:41:23;;;;;;;15.40;10.32;;;5.50;99.90;;;;;;5076770;28;20032;-61
2023/01/27 07:43:49;;;;;;;18.25;10.15;;;5.40;99.90;;;;;;5059465;28;20063;-62
2023/01/27 07:46:17;;;;;;;16.58;9.90;;;5.40;99.90;;;;;;5042920;28;20089;-61
2023/01/27 07:48:43;;;;;;;16.23;9.32;;;5.50;99.90;;;;;;5076737;28;20025;-61
2023/01/27 07:51:13;;;;;;;14.10;9.40;;;5.60;99.90;;;;;;5076544;28;20052;-62
2023/01/27 07:53:39;;;;;;;19.23;10.80;;;5.60;99.90;;;;;;5076769;28;20404;-62
2023/01/27 07:56:10;;;;;;;14.50;10.18;;;5.50;99.90;;;;;;5077417;28;20032;-61
2023/01/27 07:58:39;;;;;;;18.85;10.35;;;5.40;99.90;;;;;;5076855;28;20403;-62
2023/01/27 08:01:07;;;;;;;17.35;9.90;;;5.40;99.90;;;;;;5076150;28;20133;-62
2023/01/27 08:03:33;;;;;;;16.45;10.88;;;5.50;99.90;;;;;;5076612;28;20051;-62
2023/01/27 08:06:07;;;;;;;17.05;10.50;;;5.50;99.90;;;;;;5076583;28;20117;-63
2023/01/27 08:08:33;;;;;;;15.00;9.88;;;5.40;99.90;;;;;;5076643;28;20325;-62
2023/01/27 08:11:00;;;;;;;17.48;10.68;;;5.50;99.90;;;;;;5076586;28;20125;-61
2023/01/27 08:13:26;;;;;;;14.55;9.80;;;5.60;99.90;;;;;;5076435;28;20103;-61
2023/01/27 08:15:59;;;;;;;16.40;9.80;;;5.60;99.90;;;;;;5076825;28;20107;-61
2023/01/27 08:18:26;;;;;;;19.23;10.32;;;5.60;99.90;;;;;;5076595;28;20414;-61
2023/01/27 08:20:53;;;;;;;16.58;9.88;;;5.60;99.90;;;;;;5059070;28;20059;-61
2023/01/27 08:23:22;;;;;;;17.23;9.35;;;5.70;99.90;;;;;;5076542;28;20024;-61
2023/01/27 08:25:52;;;;;;;13.85;9.25;;;5.70;99.90;;;;;;5076555;28;20025;-61
2023/01/27 08:28:19;;;;;;;15.20;9.75;;;5.80;99.90;;;;;;5076574;28;20024;-61
2023/01/27 08:30:46;;;;;;;15.02;8.77;;;5.90;99.90;;;;;;5076581;28;20074;-61
2023/01/27 08:33:12;;;;;;;12.80;8.20;;;5.90;99.90;;;;;;5058973;28;20028;-61
2023/01/27 08:35:41;;;;;;;12.73;8.50;;;5.80;99.90;;;;;;5076466;28;20032;-61
2023/01/27 08:38:07;;;;;;;11.75;8.23;;;5.90;99.90;;;;;;5076580;28;20024;-61
2023/01/27 08:40:33;;;;;;;11.05;7.68;;;6.00;99.90;;;;;;5076525;28;20028;-61
2023/01/27 08:43:00;;;;;;;12.50;8.43;;;6.10;99.90;;;;;;5076512;28;20029;-61
2023/01/27 08:45:27;;;;;;;12.57;7.65;;;5.90;99.90;;;;;;5076443;28;20048;-61
2023/01/27 08:47:53;;;;;;;10.10;7.38;;;5.80;99.90;;;;;;5076489;28;20277;-61
2023/01/27 08:50:19;;;;;;;11.57;7.90;;;6.00;99.90;;;;;;5058788;28;20063;-61
2023/01/27 08:52:45;;;;;;;10.70;7.45;;;6.10;99.90;;;;;;5076321;28;20119;-61
2023/01/27 08:55:11;;;;;;;10.15;6.78;;;6.10;99.90;;;;;;5076340;28;20448;-61
2023/01/27 08:57:37;;;;;;;11.35;7.50;;;6.10;99.90;;;;;;5076399;28;20032;-61
2023/01/27 09:00:05;;;;;;;9.80;6.80;;;6.10;99.90;;;;;;5076630;28;20035;-61
2023/01/27 09:02:31;;;;;;;9.65;6.45;;;6.30;99.90;;;;;;5076611;28;20070;-62
2023/01/27 09:04:57;;;;;;;10.18;6.90;;;6.40;99.90;;;;;;5076638;28;20032;-61
2023/01/27 09:07:23;;;;;;;9.30;6.60;;;6.50;99.90;;;;;;5076640;28;20422;-61
2023/01/27 09:09:49;;;;;;;10.70;6.40;;;6.50;99.90;;;;;;5042202;28;20117;-61
2023/01/27 09:12:15;;;;;;;10.60;7.15;;;6.50;99.90;;;;;;5043648;28;20035;-62
2023/01/27 09:14:41;;;;;;;7.45;6.18;;;6.70;99.90;;;;;;5062455;28;20025;-61
2023/01/27 09:17:07;;;;;;;8.88;6.32;;;6.80;99.90;;;;;;5079766;28;20032;-61
2023/01/27 09:19:33;;;;;;;9.25;5.95;;;6.80;99.90;;;;;;5079765;28;20109;-61
2023/01/27 09:21:59;;;;;;;9.43;5.95;;;6.90;99.90;;;;;;5079610;28;20029;-61
2023/01/27 09:24:24;;;;;;;8.00;6.13;;;7.00;99.90;;;;;;5062272;28;20028;-62
2023/01/27 09:26:50;;;;;;;11.23;6.15;;;7.00;99.90;;;;;;5079508;28;20052;-61
2023/01/27 09:29:16;;;;;;;8.88;7.05;;;6.90;99.90;;;;;;5079217;28;20115;-63
2023/01/27 09:31:42;;;;;;;8.55;6.50;;;7.00;99.90;;;;;;5079425;28;20059;-63
2023/01/27 09:34:08;;;;;;;7.40;6.15;;;7.10;99.90;;;;;;5062643;28;20037;-61
2023/01/27 09:36:39;;;;;;;6.07;5.22;;;7.10;99.90;;;;;;5079374;28;20029;-62
2023/01/27 09:39:07;;;;;;;8.18;5.90;;;7.20;99.90;;;;;;5079354;28;20243;-61
2023/01/27 09:41:54;;;;;;;8.15;5.82;;;7.30;99.90;;;;;;5079219;28;20052;-61
2023/01/27 09:44:37;;;;;;;8.82;5.80;;;7.30;99.90;;;;;;5061812;28;20086;-61
2023/01/27 09:47:34;;;;;;;9.63;5.25;;;7.30;99.90;;;;;;5079243;28;20088;-62
2023/01/27 09:50:39;;;;;;;6.28;5.05;;;7.40;99.90;;;;;;5079495;28;20307;-62
2023/01/27 09:53:26;;;;;;;7.18;4.93;;;7.30;99.90;;;;;;5070077;28;20045;-61
2023/01/27 09:56:04;;;;;;;6.60;4.88;;;7.20;99.90;;;;;;5079025;28;20047;-61
2023/01/27 09:58:46;;;;;;;6.00;5.18;;;7.20;99.90;;;;;;5079101;28;20036;-62
2023/01/27 10:01:30;;;;;;;6.18;4.53;;;7.00;99.90;;;;;;5061355;28;20036;-62
2023/01/27 10:04:30;;;;;;;7.45;4.35;;;7.00;99.90;;;;;;5078903;28;20032;-61
2023/01/27 10:07:14;;;;;;;5.60;4.15;;;7.00;99.90;;;;;;5079097;28;20033;-61
2023/01/27 10:10:01;;;;;;;4.30;3.80;;;7.10;99.90;;;;;;5061472;28;20346;-61
2023/01/27 10:12:53;;;;;;;4.82;4.05;;;6.90;99.90;;;;;;5078791;28;20056;-62
2023/01/27 10:15:46;;;;;;;3.60;3.25;;;7.00;99.90;;;;;;5051707;28;20102;-62
2023/01/27 10:18:50;;;;;;;5.57;3.60;;;7.10;99.90;;;;;;5061500;28;20323;-61
2023/01/27 10:21:28;;;;;;;4.30;3.83;;;7.10;99.90;;;;;;5078617;28;20036;-61
2023/01/27 10:24:10;;;;;;;4.95;3.40;;;6.90;99.90;;;;;;5078061;28;20024;-61
2023/01/27 10:26:41;;;;;;;3.97;3.58;;;6.80;99.90;;;;;;5078242;28;20284;-61
2023/01/27 10:29:09;;;;;;;3.70;3.40;;;6.80;99.90;;;;;;5078319;28;20051;-61
2023/01/27 10:31:56;;;;;;;3.70;3.40;;;6.70;99.90;;;;;;5060778;28;20278;-59
2023/01/27 10:34:35;;;;;;;4.30;3.30;;;6.70;99.90;;;;;;5078856;28;20062;-61
2023/01/27 10:37:29;;;;;;;5.05;3.28;;;6.90;99.90;;;;;;5061176;28;20036;-61
2023/01/27 10:40:30;;;;;;;3.22;2.88;;;6.60;99.90;;;;;;5077983;28;20331;-61
2023/01/27 10:43:32;;;;;;;3.50;2.60;;;6.50;99.90;;;;;;5075070;28;20063;-61
2023/01/27 10:46:26;;;;;;;5.38;3.22;;;6.50;99.90;;;;;;5060949;28;20334;-61
2023/01/27 10:49:06;;;;;;;3.28;2.60;;;6.30;99.90;;;;;;5077927;28;20292;-62
2023/01/27 10:51:48;;;;;;;3.33;2.80;;;6.40;99.90;;;;;;5060243;28;20071;-61
2023/01/27 10:54:42;;;;;;;6.80;2.53;;;6.40;99.90;;;;;;5077868;28;20043;-61
2023/01/27 10:57:18;;;;;;;2.55;2.35;;;6.70;99.90;;;;;;5078458;28;20050;-61
2023/01/27 10:59:56;;;;;;;4.63;2.80;;;6.70;99.90;;;;;;5060671;28;20123;-61
2023/01/27 11:02:48;;;;;;;3.13;2.30;;;6.80;99.90;;;;;;5077694;28;20082;-62
2023/01/27 11:05:20;;;;;;;3.08;2.78;;;6.90;99.90;;;;;;5060328;28;20040;-62
2023/01/27 11:07:51;;;;;;;3.38;2.90;;;6.70;99.90;;;;;;5077812;28;20044;-62
2023/01/27 11:10:19;;;;;;;6.03;3.00;;;6.70;99.90;;;;;;5060217;28;20036;-62
2023/01/27 11:12:53;;;;;;;4.18;3.10;;;6.70;99.90;;;;;;5077514;28;20032;-62
2023/01/27 11:15:32;;;;;;;4.70;3.03;;;6.90;99.90;;;;;;5077488;28;20051;-61
2023/01/27 11:18:11;;;;;;;3.10;2.78;;;6.70;99.90;;;;;;5077369;28;20094;-61
2023/01/27 11:21:01;;;;;;;3.28;2.78;;;6.70;99.90;;;;;;5077383;28;20094;-61
2023/01/27 11:23:34;;;;;;;4.22;2.88;;;6.60;99.90;;;;;;5077568;28;20338;-61
2023/01/27 11:26:19;;;;;;;8.02;3.03;;;6.70;99.90;;;;;;5060164;28;20107;-61
2023/01/27 11:29:18;;;;;;;3.70;3.25;;;6.90;99.90;;;;;;5077358;28;20287;-62
2023/01/27 11:32:12;;;;;;;3.53;3.05;;;7.10;99.90;;;;;;5077215;28;20119;-62
2023/01/27 11:35:07;;;;;;;3.38;2.72;;;7.30;99.90;;;;;;5076487;28;20044;-62
2023/01/27 11:37:47;;;;;;;3.47;2.40;;;7.40;99.90;;;;;;5076708;28;20040;-62
2023/01/27 11:40:17;;;;;;;3.35;3.00;;;7.40;99.90;;;;;;5077499;28;20032;-62
2023/01/27 11:42:44;;;;;;;7.05;4.82;;;7.40;99.90;;;;;;5077112;28;20025;-60
2023/01/27 11:45:15;;;;;;;4.90;3.72;;;7.50;99.90;;;;;;5077046;28;20035;-61
2023/01/27 11:47:43;;;;;;;7.53;4.93;;;7.70;99.90;;;;;;5059447;28;20033;-61
2023/01/27 11:50:20;;;;;;;8.10;5.18;;;7.80;99.90;;;;;;5076846;28;20059;-61
2023/01/27 11:52:50;;;;;;;5.82;4.50;;;7.70;99.90;;;;;;5076932;28;20036;-62
2023/01/27 11:55:25;;;;;;;5.50;3.53;;;7.60;99.90;;;;;;5059584;28;20046;-61
2023/01/27 11:58:11;;;;;;;3.55;3.25;;;7.50;99.90;;;;;;5059745;28;20288;-62
2023/01/27 12:00:43;;;;;;;4.75;3.47;;;7.20;99.90;;;;;;5046234;28;20050;-62
2023/01/27 12:03:41;;;;;;;3.65;3.20;;;7.20;99.90;;;;;;5076814;28;20029;-61
2023/01/27 12:06:16;;;;;;;3.45;3.15;;;7.30;99.90;;;;;;5076510;28;20021;-62
2023/01/27 12:08:44;;;;;;;3.30;3.00;;;7.30;99.90;;;;;;5076665;28;20029;-60
2023/01/27 12:11:21;;;;;;;3.47;2.72;;;7.30;99.90;;;;;;5059295;28;20346;-60
2023/01/27 12:14:01;;;;;;;3.63;2.50;;;7.20;99.90;;;;;;5076522;28;20028;-61
2023/01/27 12:16:46;;;;;;;3.75;2.60;;;7.40;99.90;;;;;;5076536;28;20296;-62
2023/01/27 12:19:24;;;;;;;4.68;3.15;;;7.40;99.90;;;;;;5059875;28;20262;-62
2023/01/27 12:21:53;;;;;;;2.92;2.60;;;7.50;99.90;;;;;;5058935;28;20033;-61
2023/01/27 12:24:34;;;;;;;3.55;2.70;;;7.60;99.90;;;;;;5059426;28;20265;-62
2023/01/27 12:27:02;;;;;;;4.03;2.50;;;7.50;99.90;;;;;;5076667;28;20315;-61
2023/01/27 12:29:41;;;;;;;2.53;2.33;;;7.30;99.90;;;;;;5059118;28;20033;-62
2023/01/27 12:32:17;;;;;;;3.15;2.70;;;7.20;99.90;;;;;;5076663;28;20032;-61
2023/01/27 12:34:50;;;;;;;2.53;2.30;;;7.40;99.90;;;;;;5076549;28;20311;-62
2023/01/27 12:37:28;;;;;;;3.70;2.78;;;7.50;99.90;;;;;;5075984;28;20094;-62
2023/01/27 12:40:01;;;;;;;3.78;2.53;;;7.60;99.90;;;;;;5076139;28;20037;-61
2023/01/27 12:43:01;;;;;;;3.38;2.60;;;7.30;99.90;;;;;;5059019;28;20039;-62
2023/01/27 12:45:29;;;;;;;3.63;2.53;;;7.20;99.90;;;;;;5076689;28;20027;-61
2023/01/27 12:48:03;;;;;;;3.22;2.92;;;7.30;99.90;;;;;;5080279;28;20021;-62
2023/01/27 12:50:38;;;;;;;2.83;2.60;;;7.00;99.90;;;;;;5080067;28;20052;-62
2023/01/27 12:53:17;;;;;;;4.07;2.55;;;7.10;99.90;;;;;;5080344;28;20032;-62
2023/01/27 12:56:01;;;;;;;3.08;2.72;;;6.90;99.90;;;;;;5062793;28;20040;-62
2023/01/27 12:58:33;;;;;;;3.55;2.78;;;7.00;99.90;;;;;;5080058;28;20062;-62
2023/01/27 13:01:03;;;;;;;3.20;2.90;;;7.20;99.90;;;;;;5080154;28;20353;-62
2023/01/27 13:03:29;;;;;;;2.95;2.58;;;7.20;99.90;;;;;;5079892;28;20296;-62
2023/01/27 13:05:59;;;;;;;4.22;2.97;;;7.10;99.90;;;;;;5079923;28;20369;-61
2023/01/27 13:08:27;;;;;;;5.68;2.90;;;7.10;99.90;;;;;;5079848;28;20021;-62
2023/01/27 13:10:59;;;;;;;3.40;3.10;;;7.20;99.90;;;;;;5080273;28;20029;-62
2023/01/27 13:13:29;;;;;;;3.03;2.10;;;7.20;99.90;;;;;;5062362;28;20430;-60
2023/01/27 13:16:03;;;;;;;3.40;2.80;;;6.80;99.90;;;;;;5079796;28;20321;-60
2023/01/27 13:18:33;;;;;;;2.92;2.70;;;6.90;99.90;;;;;;5062545;28;20330;-60
2023/01/27 13:21:14;;;;;;;3.72;2.80;;;7.20;99.90;;;;;;5079574;28;20032;-60
2023/01/27 13:23:40;;;;;;;6.00;3.10;;;6.60;99.90;;;;;;5079675;28;20071;-61
2023/01/27 13:26:06;;;;;;;4.32;3.00;;;6.60;99.90;;;;;;5079934;28;20122;-61
2023/01/27 13:28:51;;;;;;;3.47;3.10;;;6.70;99.90;;;;;;5079459;28;20024;-61
2023/01/27 13:31:39;;;;;;;3.85;3.45;;;6.70;99.90;;;;;;5079438;28;20299;-61
2023/01/27 13:34:22;;;;;;;3.65;2.97;;;6.40;99.90;;;;;;5079739;28;20039;-62
2023/01/27 13:36:55;;;;;;;3.00;2.78;;;6.40;99.90;;;;;;5079314;28;20032;-63
2023/01/27 13:39:47;;;;;;;3.10;2.83;;;6.20;99.90;;;;;;5045413;28;20119;-61
2023/01/27 13:42:30;;;;;;;6.55;3.30;;;6.10;99.90;;;;;;5079315;28;20036;-62